createdAt,value
2022-11-17T00:01:31.800Z,2.03
2022-11-17T00:03:33.987Z,2.15
2022-11-17T00:05:47.780Z,1.98
2022-11-17T00:07:51.982Z,2.00
2022-11-17T00:09:53.641Z,2.60
2022-11-17T00:11:55.448Z,1.90
2022-11-17T00:13:57.179Z,2.17
2022-11-17T00:15:58.959Z,2.10
2022-11-17T00:18:01.780Z,2.42
2022-11-17T00:20:03.843Z,2.30
2022-11-17T00:22:05.503Z,2.33
2022-11-17T00:24:16.617Z,2.13
2022-11-17T00:26:38.448Z,2.38
2022-11-17T00:28:40.201Z,1.70
2022-11-17T00:30:43.930Z,2.00
2022-11-17T00:32:45.858Z,2.03
2022-11-17T00:34:47.534Z,1.90
2022-11-17T00:36:53.155Z,2.42
2022-11-17T00:39:12.857Z,2.03
2022-11-17T00:41:17.411Z,2.00
2022-11-17T00:43:19.138Z,2.22
2022-11-17T00:45:20.876Z,2.10
2022-11-17T00:47:22.666Z,1.98
2022-11-17T00:49:24.353Z,2.55
2022-11-17T00:51:26.131Z,1.90
2022-11-17T00:53:55.229Z,2.10
2022-11-17T00:55:56.977Z,2.10
2022-11-17T00:58:16.746Z,2.15
2022-11-17T01:00:18.534Z,2.00
2022-11-17T01:02:25.909Z,2.10
2022-11-17T01:04:30.394Z,2.20
2022-11-17T01:06:33.103Z,1.90
2022-11-17T01:08:34.887Z,2.20
2022-11-17T01:10:36.584Z,2.35
2022-11-17T01:12:38.322Z,2.63
2022-11-17T01:14:40.050Z,2.13
2022-11-17T01:16:41.808Z,2.10
2022-11-17T01:18:44.518Z,2.17
2022-11-17T01:20:46.244Z,2.08
2022-11-17T01:22:47.950Z,1.77
2022-11-17T01:27:45.525Z,1.92
2022-11-17T01:30:14.903Z,2.17
2022-11-17T01:32:34.576Z,2.05
2022-11-17T01:34:36.379Z,1.85
2022-11-17T01:36:40.126Z,2.10
2022-11-17T01:38:44.923Z,1.83
2022-11-17T01:40:46.570Z,1.70
2022-11-17T01:43:09.165Z,1.75
2022-11-17T01:45:16.673Z,1.88
2022-11-17T01:47:24.760Z,2.00
2022-11-17T01:49:26.997Z,2.17
2022-11-17T01:51:29.246Z,2.25
2022-11-17T01:53:33.996Z,2.05
2022-11-17T01:55:54.096Z,2.10
2022-11-17T01:58:19.832Z,1.73
2022-11-17T02:00:27.396Z,1.95
2022-11-17T02:02:38.501Z,1.95
2022-11-17T02:04:42.284Z,2.10
2022-11-17T02:06:46.890Z,1.95
2022-11-17T02:08:51.569Z,1.90
2022-11-17T02:11:02.876Z,2.10
2022-11-17T02:13:07.687Z,2.00
2022-11-17T02:15:09.750Z,2.10
2022-11-17T02:17:14.207Z,1.83
2022-11-17T02:19:16.436Z,2.67
2022-11-17T02:21:38.747Z,2.40
2022-11-17T02:23:56.434Z,2.20
2022-11-17T02:26:19.957Z,2.15
2022-11-17T02:28:29.277Z,2.38
2022-11-17T02:30:49.374Z,2.20
2022-11-17T02:33:03.647Z,2.20
2022-11-17T02:35:40.635Z,2.30
2022-11-17T02:38:17.645Z,1.98
2022-11-17T02:40:25.787Z,2.10
2022-11-17T02:42:59.185Z,2.15
2022-11-17T02:45:27.002Z,2.15
2022-11-17T02:47:29.998Z,2.22
2022-11-17T02:49:39.083Z,2.72
2022-11-17T02:51:41.144Z,2.30
2022-11-17T02:53:42.799Z,2.53
2022-11-17T02:55:55.404Z,2.53
2022-11-17T02:58:15.267Z,2.90
2022-11-17T03:00:17.738Z,2.50
2022-11-17T03:02:57.491Z,2.50
2022-11-17T03:05:23.235Z,2.60
2022-11-17T03:07:59.976Z,2.63
2022-11-17T03:10:11.361Z,2.47
2022-11-17T03:12:20.369Z,2.65
2022-11-17T03:15:07.074Z,2.88
2022-11-17T03:17:15.539Z,2.90
2022-11-17T03:19:26.915Z,2.80
2022-11-17T03:22:10.196Z,3.05
2022-11-17T03:24:18.452Z,3.08
2022-11-17T03:26:23.911Z,2.97
2022-11-17T03:28:59.495Z,2.65
2022-11-17T03:31:04.357Z,2.63
2022-11-17T03:33:08.747Z,2.90
2022-11-17T03:37:13.347Z,2.53
2022-11-17T03:39:17.247Z,2.90
2022-11-17T03:41:18.974Z,3.08
2022-11-17T03:43:20.788Z,2.97
2022-11-17T03:45:26.845Z,2.80
2022-11-17T03:47:28.529Z,3.10
2022-11-17T03:49:42.674Z,3.25
2022-11-17T03:51:44.354Z,2.80
2022-11-17T03:53:46.141Z,2.80
2022-11-17T03:56:16.913Z,2.65
2022-11-17T03:58:18.576Z,2.95
2022-11-17T04:00:20.367Z,2.70
2022-11-17T04:02:22.285Z,2.60
2022-11-17T04:04:24.031Z,3.28
2022-11-17T04:06:25.746Z,2.97
2022-11-17T04:08:27.669Z,2.53
2022-11-17T04:10:29.401Z,2.80
2022-11-17T04:12:31.051Z,2.60
2022-11-17T04:14:32.807Z,2.80
2022-11-17T04:16:34.468Z,2.88
2022-11-17T04:18:37.744Z,2.85
2022-11-17T04:20:39.450Z,2.90
2022-11-17T04:22:41.173Z,2.53
2022-11-17T04:24:43.015Z,2.80
2022-11-17T04:26:44.692Z,2.80
2022-11-17T04:28:48.420Z,2.38
2022-11-17T04:30:50.146Z,3.92
2022-11-17T04:32:51.832Z,3.13
2022-11-17T04:34:53.535Z,3.00
2022-11-17T04:36:55.148Z,2.88
2022-11-17T04:38:57.650Z,2.50
2022-11-17T04:41:04.153Z,3.13
2022-11-17T04:43:07.570Z,2.58
2022-11-17T04:45:09.763Z,2.80
2022-11-17T04:47:11.359Z,2.58
2022-11-17T04:49:13.720Z,2.60
2022-11-17T04:51:16.127Z,2.70
2022-11-17T04:53:17.714Z,2.97
2022-11-17T04:55:19.311Z,2.60
2022-11-17T04:57:20.893Z,2.60
2022-11-17T04:59:22.475Z,2.60
2022-11-17T05:01:24.554Z,3.17
2022-11-17T05:03:26.157Z,3.47
2022-11-17T05:05:27.748Z,2.97
2022-11-17T05:07:29.385Z,2.75
2022-11-17T05:09:31.241Z,2.70
2022-11-17T05:11:32.875Z,2.53
2022-11-17T05:13:34.701Z,2.75
2022-11-17T05:15:36.591Z,3.40
2022-11-17T05:17:38.174Z,3.47
2022-11-17T05:19:49.338Z,2.97
2022-11-17T05:21:51.053Z,3.35
2022-11-17T05:23:52.656Z,3.00
2022-11-17T05:25:54.247Z,2.80
2022-11-17T05:27:55.827Z,2.90
2022-11-17T05:29:57.419Z,2.70
2022-11-17T05:31:58.989Z,2.35
2022-11-17T05:34:00.881Z,2.67
2022-11-17T05:36:02.479Z,2.80
2022-11-17T05:38:04.066Z,3.08
2022-11-17T05:40:06.344Z,2.85
2022-11-17T05:42:07.950Z,3.00
2022-11-17T05:44:09.544Z,2.80
2022-11-17T05:46:11.260Z,3.03
2022-11-17T05:48:12.894Z,2.95
2022-11-17T05:50:14.532Z,2.55
2022-11-17T05:52:16.134Z,2.88
2022-11-17T05:54:17.722Z,2.45
2022-11-17T05:56:30.315Z,2.80
2022-11-17T05:58:31.914Z,2.80
2022-11-17T06:00:33.539Z,2.90
2022-11-17T06:02:38.775Z,2.70
2022-11-17T06:04:40.439Z,3.00
2022-11-17T06:06:42.109Z,3.58
2022-11-17T06:08:43.719Z,3.20
2022-11-17T06:10:45.326Z,3.13
2022-11-17T06:12:47.221Z,2.92
2022-11-17T06:14:48.817Z,3.15
2022-11-17T06:16:51.603Z,2.83
2022-11-17T06:19:16.040Z,3.65
2022-11-17T06:21:17.687Z,2.97
2022-11-17T06:23:19.914Z,2.90
2022-11-17T06:25:21.490Z,3.10
2022-11-17T06:27:23.105Z,3.00
2022-11-17T06:29:24.823Z,2.60
2022-11-17T06:31:26.653Z,3.03
2022-11-17T06:33:31.277Z,3.15
2022-11-17T06:35:32.887Z,3.00
2022-11-17T06:37:34.548Z,3.28
2022-11-17T06:39:36.126Z,3.00
2022-11-17T06:41:37.725Z,3.30
2022-11-17T06:43:39.315Z,3.08
2022-11-17T06:45:42.587Z,3.42
2022-11-17T06:47:44.193Z,2.78
2022-11-17T06:49:45.779Z,2.83
2022-11-17T06:51:47.371Z,2.88
2022-11-17T06:53:49.080Z,2.85
2022-11-17T06:55:50.698Z,3.05
2022-11-17T06:57:53.680Z,3.15
2022-11-17T06:59:55.497Z,3.35
2022-11-17T07:01:57.184Z,3.25
2022-11-17T07:03:58.831Z,3.38
2022-11-17T07:06:00.641Z,2.92
2022-11-17T07:08:04.863Z,2.60
2022-11-17T07:10:07.007Z,3.45
2022-11-17T07:12:08.682Z,3.40
2022-11-17T07:14:10.299Z,3.40
2022-11-17T07:16:21.760Z,3.83
2022-11-17T07:18:25.018Z,3.42
2022-11-17T07:20:26.688Z,3.80
2022-11-17T07:22:28.319Z,3.90
2022-11-17T07:24:29.986Z,4.30
2022-11-17T07:26:31.665Z,3.30
2022-11-17T07:28:34.150Z,3.22
2022-11-17T07:30:36.024Z,3.05
2022-11-17T07:32:37.664Z,3.30
2022-11-17T07:34:39.606Z,3.88
2022-11-17T07:36:41.296Z,4.28
2022-11-17T07:38:42.999Z,3.65
2022-11-17T07:40:44.704Z,3.83
2022-11-17T07:42:49.606Z,3.78
2022-11-17T07:44:51.273Z,4.93
2022-11-17T07:46:52.907Z,4.10
2022-11-17T07:48:55.514Z,3.83
2022-11-17T07:51:00.780Z,4.00
2022-11-17T07:53:02.443Z,4.20
2022-11-17T07:55:04.318Z,4.80
2022-11-17T07:57:06.027Z,4.80
2022-11-17T07:59:07.748Z,4.07
2022-11-17T08:01:11.738Z,4.15
2022-11-17T08:03:13.459Z,4.93
2022-11-17T08:05:15.216Z,4.28
2022-11-17T08:07:16.901Z,4.32
2022-11-17T08:09:18.532Z,4.20
2022-11-17T08:11:20.261Z,4.03
2022-11-17T08:13:21.952Z,4.05
2022-11-17T08:15:23.729Z,4.72
2022-11-17T08:17:26.428Z,4.05
2022-11-17T08:19:28.052Z,4.22
2022-11-17T08:21:29.730Z,4.38
2022-11-17T08:23:31.414Z,4.43
2022-11-17T08:25:34.219Z,4.20
2022-11-17T08:27:35.855Z,3.92
2022-11-17T08:29:37.514Z,4.72
2022-11-17T08:31:39.148Z,3.95
2022-11-17T08:33:40.805Z,4.10
2022-11-17T08:35:42.485Z,4.38
2022-11-17T08:37:44.161Z,4.45
2022-11-17T08:39:45.844Z,3.92
2022-11-17T08:41:47.474Z,4.15
2022-11-17T08:43:50.616Z,4.28
2022-11-17T08:45:52.249Z,3.83
2022-11-17T08:47:53.924Z,3.45
2022-11-17T08:49:55.589Z,3.83
2022-11-17T08:51:57.280Z,4.15
2022-11-17T08:53:59.059Z,3.65
2022-11-17T08:56:00.717Z,3.78
2022-11-17T08:58:03.968Z,3.55
2022-11-17T09:00:09.000Z,3.50
2022-11-17T09:02:12.425Z,3.42
2022-11-17T09:04:14.097Z,3.42
2022-11-17T09:06:16.161Z,3.40
2022-11-17T09:10:39.508Z,3.55
2022-11-17T09:12:41.151Z,3.78
2022-11-17T09:14:42.762Z,3.03
2022-11-17T09:16:44.398Z,3.20
2022-11-17T09:18:46.045Z,3.30
2022-11-17T09:20:47.648Z,3.50
2022-11-17T09:22:49.256Z,3.63
2022-11-17T09:24:51.936Z,4.25
2022-11-17T09:26:54.433Z,3.58
2022-11-17T09:28:56.060Z,3.65
2022-11-17T09:30:57.756Z,3.97
2022-11-17T09:32:59.391Z,3.50
2022-11-17T09:35:01.140Z,3.85
2022-11-17T09:37:02.776Z,3.70
2022-11-17T09:39:04.530Z,3.90
2022-11-17T09:41:24.375Z,3.78
2022-11-17T09:43:30.248Z,3.42
2022-11-17T09:45:33.336Z,3.78
2022-11-17T09:47:39.873Z,3.65
2022-11-17T09:49:59.057Z,3.97
2022-11-17T09:52:05.240Z,3.63
2022-11-17T09:54:23.659Z,3.08
2022-11-17T09:56:25.995Z,3.15
2022-11-17T09:58:36.922Z,3.40
2022-11-17T10:00:39.246Z,3.10
2022-11-17T10:02:41.915Z,3.05
2022-11-17T10:04:43.551Z,3.75
2022-11-17T10:06:46.284Z,2.97
2022-11-17T10:09:05.779Z,2.85
2022-11-17T10:11:15.148Z,3.30
2022-11-17T10:13:32.342Z,3.70
2022-11-17T10:15:42.060Z,3.42
2022-11-17T10:17:43.685Z,2.50
2022-11-17T10:19:45.475Z,2.80
2022-11-17T10:21:49.211Z,3.33
2022-11-17T10:23:59.842Z,2.88
2022-11-17T10:26:01.627Z,2.60
2022-11-17T10:28:03.520Z,2.47
2022-11-17T10:30:15.031Z,2.60
2022-11-17T10:32:16.650Z,2.42
2022-11-17T10:34:41.019Z,2.88
2022-11-17T10:36:47.875Z,2.53
2022-11-17T10:38:53.681Z,2.65
2022-11-17T10:40:55.712Z,2.55
2022-11-17T10:43:14.027Z,2.30
2022-11-17T10:45:16.731Z,2.50
2022-11-17T10:47:37.811Z,2.00
2022-11-17T10:49:39.410Z,2.60
2022-11-17T10:51:41.039Z,2.47
2022-11-17T10:53:46.042Z,2.38
2022-11-17T10:55:53.492Z,2.42
2022-11-17T10:58:07.819Z,2.40
2022-11-17T11:00:30.174Z,2.13
2022-11-17T11:02:35.884Z,2.10
2022-11-17T11:04:38.778Z,2.50
2022-11-17T11:06:40.357Z,2.60
2022-11-17T11:08:46.949Z,2.20
2022-11-17T11:10:49.604Z,2.55
2022-11-17T11:12:54.945Z,2.40
2022-11-17T11:14:56.625Z,2.42
2022-11-17T11:16:58.297Z,1.70
2022-11-17T11:18:59.892Z,2.10
2022-11-17T11:21:22.941Z,1.90
2022-11-17T11:23:34.162Z,2.20
2022-11-17T11:25:46.441Z,2.20
2022-11-17T11:28:00.869Z,2.15
2022-11-17T11:30:09.234Z,1.70
2022-11-17T11:32:29.067Z,2.25
2022-11-17T11:34:41.937Z,1.92
2022-11-17T11:36:48.499Z,1.83
2022-11-17T11:39:06.871Z,1.90
2022-11-17T11:41:16.172Z,1.70
2022-11-17T11:43:43.063Z,1.95
2022-11-17T11:45:54.988Z,1.67
2022-11-17T11:48:14.467Z,1.77
2022-11-17T11:50:19.711Z,2.20
2022-11-17T11:52:23.039Z,1.77
2022-11-17T11:54:31.711Z,1.60
2022-11-17T11:56:40.864Z,1.80
2022-11-17T11:58:48.262Z,1.50
2022-11-17T12:00:51.564Z,1.60
2022-11-17T12:02:56.047Z,1.48
2022-11-17T12:05:23.665Z,1.88
2022-11-17T12:07:28.346Z,1.63
2022-11-17T12:09:36.380Z,1.38
2022-11-17T12:11:41.100Z,1.50
2022-11-17T12:13:48.455Z,1.45
2022-11-17T12:16:13.168Z,1.60
2022-11-17T12:18:34.944Z,2.08
2022-11-17T12:20:39.461Z,1.75
2022-11-17T12:23:05.776Z,1.42
2022-11-17T12:25:28.692Z,1.80
2022-11-17T12:27:35.960Z,1.52
2022-11-17T12:29:45.876Z,1.65
2022-11-17T12:31:57.191Z,1.65
2022-11-17T12:34:01.836Z,1.88
2022-11-17T12:36:34.435Z,1.40
2022-11-17T12:38:39.332Z,1.73
2022-11-17T12:40:50.428Z,1.77
2022-11-17T12:43:16.911Z,1.88
2022-11-17T12:45:18.702Z,1.42
2022-11-17T12:47:21.511Z,1.80
2022-11-17T12:49:27.191Z,1.77
2022-11-17T12:51:34.863Z,1.40
2022-11-17T12:53:55.039Z,1.60
2022-11-17T12:56:08.579Z,1.58
2022-11-17T12:58:21.919Z,1.33
2022-11-17T13:00:23.787Z,1.70
2022-11-17T13:02:49.639Z,1.98
2022-11-17T13:05:00.781Z,1.60
2022-11-17T13:07:06.843Z,1.25
2022-11-17T13:09:11.742Z,1.58
2022-11-17T13:11:14.909Z,1.40
2022-11-17T13:13:24.324Z,1.90
2022-11-17T13:15:25.965Z,1.60
2022-11-17T13:17:34.476Z,1.40
2022-11-17T13:19:37.502Z,1.88
2022-11-17T13:21:39.144Z,1.70
2022-11-17T13:23:43.623Z,1.45
2022-11-17T13:27:51.057Z,1.30
2022-11-17T13:30:22.635Z,1.20
2022-11-17T13:32:24.338Z,1.60
2022-11-17T13:34:25.968Z,1.60
2022-11-17T13:36:27.562Z,1.50
2022-11-17T13:38:29.203Z,1.65
2022-11-17T13:40:31.061Z,1.52
2022-11-17T13:42:32.993Z,1.63
2022-11-17T13:44:34.623Z,1.48
2022-11-17T13:46:36.223Z,1.38
2022-11-17T13:48:38.477Z,1.30
2022-11-17T13:50:40.369Z,1.27
2022-11-17T13:52:46.680Z,1.48
2022-11-17T13:54:48.799Z,1.40
2022-11-17T13:56:52.310Z,1.20
2022-11-17T13:58:53.915Z,1.10
2022-11-17T14:00:56.630Z,1.00
2022-11-17T14:02:59.735Z,1.50
2022-11-17T14:05:13.304Z,1.45
2022-11-17T14:07:32.377Z,1.65
2022-11-17T14:09:34.005Z,1.63
2022-11-17T14:11:35.641Z,1.30
2022-11-17T14:13:40.904Z,1.30
2022-11-17T14:15:42.520Z,1.20
2022-11-17T14:17:49.774Z,1.50
2022-11-17T14:19:52.604Z,1.50
2022-11-17T14:22:09.375Z,1.38
2022-11-17T14:24:12.708Z,1.25
2022-11-17T14:26:18.695Z,1.70
2022-11-17T14:28:21.308Z,1.55
2022-11-17T14:30:23.006Z,1.25
2022-11-17T14:32:24.614Z,1.20
2022-11-17T14:34:26.242Z,1.40
2022-11-17T14:36:27.843Z,1.17
2022-11-17T14:38:29.475Z,1.30
2022-11-17T14:40:31.288Z,1.40
2022-11-17T14:42:36.044Z,1.17
2022-11-17T14:44:38.119Z,1.40
2022-11-17T14:46:39.764Z,1.33
2022-11-17T14:48:41.413Z,1.10
2022-11-17T14:50:43.382Z,1.20
2022-11-17T14:52:45.179Z,1.20
2022-11-17T14:54:46.777Z,1.30
2022-11-17T14:56:48.367Z,1.30
2022-11-17T14:58:58.426Z,0.95
2022-11-17T15:01:06.608Z,1.20
2022-11-17T15:03:08.339Z,1.15
2022-11-17T15:05:11.114Z,1.17
2022-11-17T15:07:14.022Z,1.50
2022-11-17T15:09:15.785Z,1.20
2022-11-17T15:11:17.931Z,1.35
2022-11-17T15:13:19.597Z,1.40
2022-11-17T15:15:21.246Z,1.13
2022-11-17T15:17:23.277Z,1.38
2022-11-17T15:19:24.921Z,1.00
2022-11-17T15:21:26.556Z,1.17
2022-11-17T15:23:28.210Z,1.40
2022-11-17T15:25:29.953Z,1.10
2022-11-17T15:27:31.611Z,0.98
2022-11-17T15:29:33.208Z,1.17
2022-11-17T15:31:34.824Z,1.20
2022-11-17T15:33:36.453Z,1.10
2022-11-17T15:35:38.090Z,1.38
2022-11-17T15:37:39.732Z,1.17
2022-11-17T15:39:41.341Z,1.05
2022-11-17T15:41:42.947Z,1.20
2022-11-17T15:43:44.822Z,1.17
2022-11-17T15:45:46.467Z,1.00
2022-11-17T15:47:48.109Z,1.40
2022-11-17T15:49:49.792Z,1.10
2022-11-17T15:51:51.417Z,1.40
2022-11-17T15:53:53.716Z,1.40
2022-11-17T15:55:55.339Z,1.20
2022-11-17T15:57:56.976Z,1.10
2022-11-17T15:59:58.576Z,1.08
2022-11-17T16:02:09.678Z,1.30
2022-11-17T16:04:13.413Z,1.48
2022-11-17T16:06:15.188Z,1.30
2022-11-17T16:08:17.309Z,1.50
2022-11-17T16:10:19.110Z,1.30
2022-11-17T16:12:21.516Z,1.27
2022-11-17T16:14:23.709Z,1.10
2022-11-17T16:16:33.541Z,1.30
2022-11-17T16:18:35.594Z,1.27
2022-11-17T16:20:37.341Z,1.30
2022-11-17T16:22:39.120Z,1.30
2022-11-17T16:24:40.821Z,0.95
2022-11-17T16:26:42.523Z,1.00
2022-11-17T16:28:44.250Z,1.05
2022-11-17T16:30:45.940Z,1.10
2022-11-17T16:32:47.864Z,1.05
2022-11-17T16:34:49.914Z,1.05
2022-11-17T16:36:51.660Z,1.10
2022-11-17T16:39:02.288Z,1.20
2022-11-17T16:41:04.224Z,0.90
2022-11-17T16:43:06.153Z,1.30
2022-11-17T16:45:08.188Z,1.02
2022-11-17T16:47:09.889Z,1.00
2022-11-17T16:49:13.270Z,1.10
2022-11-17T16:51:15.789Z,1.27
2022-11-17T16:53:17.560Z,1.20
2022-11-17T16:55:19.428Z,1.00
2022-11-17T16:57:21.155Z,1.10
2022-11-17T16:59:22.841Z,0.93
2022-11-17T17:01:26.067Z,1.15
2022-11-17T17:03:27.939Z,0.98
2022-11-17T17:05:29.682Z,0.90
2022-11-17T17:07:31.581Z,1.30
2022-11-17T17:09:33.508Z,0.90
2022-11-17T17:11:35.777Z,1.20
2022-11-17T17:13:37.502Z,1.23
2022-11-17T17:15:39.416Z,1.30
2022-11-17T17:17:41.169Z,1.42
2022-11-17T17:19:43.278Z,1.27
2022-11-17T17:21:45.040Z,1.02
2022-11-17T17:23:46.860Z,1.00
2022-11-17T17:25:49.060Z,1.10
2022-11-17T17:27:50.832Z,0.90
2022-11-17T17:29:52.714Z,0.82
2022-11-17T17:31:54.505Z,1.08
2022-11-17T17:33:56.323Z,0.88
2022-11-17T17:36:24.968Z,1.10
2022-11-17T17:38:28.158Z,0.95
2022-11-17T17:40:30.196Z,0.90
2022-11-17T17:42:32.030Z,1.45
2022-11-17T17:44:33.800Z,1.30
2022-11-17T17:46:38.090Z,1.15
2022-11-17T17:50:41.713Z,1.20
2022-11-17T17:52:46.523Z,1.00
2022-11-17T17:54:48.229Z,1.30
2022-11-17T17:56:49.998Z,1.10
2022-11-17T17:58:53.571Z,1.00
2022-11-17T18:00:55.459Z,1.27
2022-11-17T18:02:57.244Z,1.23
2022-11-17T18:04:59.031Z,1.27
2022-11-17T18:07:00.794Z,1.40
2022-11-17T18:09:02.548Z,0.75
2022-11-17T18:11:05.618Z,1.17
2022-11-17T18:13:10.654Z,1.10
2022-11-17T18:15:12.703Z,1.23
2022-11-17T18:17:14.291Z,1.50
2022-11-17T18:19:16.365Z,1.10
2022-11-17T18:21:18.959Z,0.93
2022-11-17T18:23:20.716Z,1.27
2022-11-17T18:25:22.452Z,0.82
2022-11-17T18:27:24.179Z,1.10
2022-11-17T18:29:25.980Z,1.40
2022-11-17T18:31:30.505Z,1.20
2022-11-17T18:33:32.503Z,1.90
2022-11-17T18:35:35.327Z,1.08
2022-11-17T18:37:37.066Z,1.20
2022-11-17T18:39:38.744Z,1.02
2022-11-17T18:41:40.530Z,1.38
2022-11-17T18:43:43.362Z,1.33
2022-11-17T18:45:45.129Z,1.48
2022-11-17T18:47:46.897Z,1.10
2022-11-17T18:49:48.614Z,1.17
2022-11-17T18:51:50.453Z,1.42
2022-11-17T18:53:53.389Z,1.00
2022-11-17T18:56:02.521Z,0.90
2022-11-17T18:58:04.278Z,0.90
2022-11-17T19:00:06.702Z,1.30
2022-11-17T19:02:08.748Z,1.20
2022-11-17T19:04:14.248Z,1.55
2022-11-17T19:06:16.412Z,0.93
2022-11-17T19:08:18.108Z,1.20
2022-11-17T19:10:19.875Z,1.60
2022-11-17T19:12:21.545Z,1.00
2022-11-17T19:14:23.278Z,1.25
2022-11-17T19:16:25.976Z,1.20
2022-11-17T19:18:27.688Z,0.68
2022-11-17T19:20:29.453Z,1.15
2022-11-17T19:22:31.146Z,1.20
2022-11-17T19:24:32.814Z,1.05
2022-11-17T19:26:35.096Z,0.95
2022-11-17T19:28:36.972Z,1.15
2022-11-17T19:30:38.699Z,1.13
2022-11-17T19:32:40.394Z,1.35
2022-11-17T19:34:42.089Z,1.48
2022-11-17T19:36:43.815Z,1.00
2022-11-17T19:38:48.120Z,1.20
2022-11-17T19:40:49.876Z,1.00
2022-11-17T19:42:51.630Z,1.10
2022-11-17T19:44:53.433Z,1.08
2022-11-17T19:46:55.105Z,0.90
2022-11-17T19:48:57.145Z,1.13
2022-11-17T19:50:59.314Z,1.13
2022-11-17T19:53:01.007Z,1.00
2022-11-17T19:55:02.730Z,1.30
2022-11-17T19:57:04.594Z,1.45
2022-11-17T19:59:08.669Z,0.98
2022-11-17T20:01:14.816Z,1.10
2022-11-17T20:03:16.634Z,0.98
2022-11-17T20:05:18.356Z,0.90
2022-11-17T20:07:20.171Z,1.20
2022-11-17T20:09:22.116Z,1.08
2022-11-17T20:11:25.554Z,1.17
2022-11-17T20:13:27.311Z,1.17
2022-11-17T20:15:36.208Z,1.00
2022-11-17T20:17:37.899Z,1.17
2022-11-17T20:19:39.676Z,1.13
2022-11-17T20:21:41.348Z,1.10
2022-11-17T20:23:43.167Z,0.90
2022-11-17T20:25:44.865Z,1.30
2022-11-17T20:27:46.616Z,0.98
2022-11-17T20:29:48.331Z,1.00
2022-11-17T20:31:50.079Z,1.20
2022-11-17T20:33:52.234Z,1.40
2022-11-17T20:35:53.939Z,1.20
2022-11-17T20:37:55.645Z,1.13
2022-11-17T20:39:57.364Z,1.30
2022-11-17T20:41:59.067Z,1.20
2022-11-17T20:44:01.003Z,0.93
2022-11-17T20:46:03.125Z,1.08
2022-11-17T20:48:04.939Z,1.20
2022-11-17T20:50:06.895Z,1.30
2022-11-17T20:52:13.218Z,1.00
2022-11-17T20:54:15.549Z,1.17
2022-11-17T20:56:17.310Z,1.30
2022-11-17T20:58:19.075Z,1.20
2022-11-17T21:00:20.874Z,1.10
2022-11-17T21:02:22.664Z,1.25
2022-11-17T21:04:24.404Z,1.30
2022-11-17T21:06:26.259Z,1.48
2022-11-17T21:08:31.301Z,1.20
2022-11-17T21:10:32.987Z,1.23
2022-11-17T21:12:34.725Z,1.20
2022-11-17T21:14:36.461Z,1.20
2022-11-17T21:16:39.287Z,1.00
2022-11-17T21:18:47.988Z,1.02
2022-11-17T21:20:49.789Z,1.00
2022-11-17T21:22:51.534Z,1.08
2022-11-17T21:24:53.388Z,1.15
2022-11-17T21:26:55.062Z,1.30
2022-11-17T21:28:59.429Z,1.17
2022-11-17T21:31:06.664Z,1.00
2022-11-17T21:33:08.447Z,1.15
2022-11-17T21:35:10.209Z,1.20
2022-11-17T21:37:11.906Z,0.93
2022-11-17T21:39:14.207Z,1.08
2022-11-17T21:41:26.274Z,1.05
2022-11-17T21:43:28.240Z,0.95
2022-11-17T21:45:29.923Z,1.17
2022-11-17T21:47:31.655Z,1.40
2022-11-17T21:49:33.459Z,1.10
2022-11-17T21:51:35.670Z,1.02
2022-11-17T21:53:37.390Z,1.30
2022-11-17T21:55:39.182Z,1.00
2022-11-17T21:57:40.861Z,1.13
2022-11-17T21:59:42.628Z,1.00
2022-11-17T22:01:44.372Z,1.10
2022-11-17T22:03:46.102Z,1.50
2022-11-17T22:05:47.863Z,1.38
2022-11-17T22:07:49.598Z,1.08
2022-11-17T22:09:51.307Z,1.33
2022-11-17T22:11:53.013Z,1.20
2022-11-17T22:13:54.751Z,1.20
2022-11-17T22:15:56.467Z,1.48
2022-11-17T22:17:58.188Z,1.25
2022-11-17T22:19:59.904Z,1.25
2022-11-17T22:22:01.587Z,1.00
2022-11-17T22:24:04.123Z,1.27
2022-11-17T22:26:06.097Z,1.55
2022-11-17T22:28:07.837Z,1.13
2022-11-17T22:30:10.049Z,1.30
2022-11-17T22:32:11.757Z,1.30
2022-11-17T22:34:13.692Z,1.02
2022-11-17T22:36:15.601Z,1.50
2022-11-17T22:38:17.360Z,1.20
2022-11-17T22:40:19.088Z,1.55
2022-11-17T22:42:20.829Z,1.20
2022-11-17T22:44:22.529Z,1.27
2022-11-17T22:46:26.654Z,1.40
2022-11-17T22:48:28.445Z,1.23
2022-11-17T22:50:30.189Z,1.50
2022-11-17T22:52:31.964Z,1.30
2022-11-17T22:54:34.122Z,1.20
2022-11-17T22:56:36.694Z,1.40
2022-11-17T22:58:38.530Z,1.23
2022-11-17T23:00:40.292Z,1.48
2022-11-17T23:02:42.027Z,1.30
2022-11-17T23:04:43.839Z,1.30
2022-11-17T23:06:45.705Z,1.38
2022-11-17T23:08:47.396Z,1.38
2022-11-17T23:10:49.061Z,1.58
2022-11-17T23:12:50.964Z,1.35
2022-11-17T23:14:52.778Z,1.30
2022-11-17T23:16:54.470Z,1.70
2022-11-17T23:18:56.595Z,1.40
2022-11-17T23:20:58.411Z,1.40
2022-11-17T23:23:00.137Z,1.30
2022-11-17T23:25:02.383Z,1.30
2022-11-17T23:27:04.216Z,1.10
2022-11-17T23:29:06.270Z,1.42
2022-11-17T23:31:12.197Z,1.33
2022-11-17T23:33:13.944Z,1.33
2022-11-17T23:35:15.646Z,1.40
2022-11-17T23:37:17.433Z,1.25
2022-11-17T23:39:19.357Z,1.35
2022-11-17T23:41:21.228Z,1.25
2022-11-17T23:43:22.885Z,1.33
2022-11-17T23:45:24.664Z,1.27
2022-11-17T23:47:26.450Z,1.30
2022-11-17T23:49:28.184Z,1.35
2022-11-17T23:51:29.929Z,1.52
2022-11-17T23:53:32.037Z,1.40
2022-11-17T23:55:33.756Z,1.33
2022-11-17T23:57:35.462Z,1.20
2022-11-17T23:59:37.140Z,1.30
